Terminal Aerodrome Forecast
Issued by NWS

Home | Current Version | Previous Version | Text Only | Print | Product List | Glossary On
Versions: 1 2 3 4 5 6 7 8 9 10 11 12
000
FTUS44 KTSA 201700
TAFRVS
TAF
KRVS 201739Z 2018/2118 18010KT P6SM VCSH SCT045 BKN100
     FM210200 17005KT P6SM VCSH OVC050 PROB30 2103/2107 4SM -TSRA
      BKN015 OVC025CB
     FM210700 17006KT 5SM SHRA OVC025
     FM211200 18005KT 6SM BR VCSH OVC015=

USA.gov is the U.S. government's official web portal to all federal, state and local government web resources and services.